Terminal Aerodrome Forecast
Issued by NWS

Home | Current Version | Previous Version | Text Only | Print | Product List | Glossary On
Versions: 1 2 3 4 5 6 7 8 9 10 11 12 13 14 15
182
FTUS42 KTAE 301948 AAA
TAFECP
TAF AMD
KECP 301948Z 3020/3118 20010KT P6SM VCTS SCT030 BKN050CB
      TEMPO 3020/3022 VRB10G20KT 2SM TSRA BKN040CB
     FM302300 23006KT P6SM FEW040 BKN250=

USA.gov is the U.S. government's official web portal to all federal, state and local government web resources and services.